sensor_id;sensor_type;location;lat;lon;timestamp;pressure;altitude;pressure_sealevel;temperature;humidity
56334;BME280;42240;53.626;55.886;2024-03-22T00:01:14;78501.03;;;-145.10;69.71
56334;BME280;42240;53.626;55.886;2024-03-22T00:02:47;78449.59;;;-145.10;69.89
56334;BME280;42240;53.626;55.886;2024-03-22T00:04:23;78590.06;;;-145.10;69.20
56334;BME280;42240;53.626;55.886;2024-03-22T00:05:56;78503.00;;;-145.10;69.76
56334;BME280;42240;53.626;55.886;2024-03-22T00:07:28;78473.34;;;-145.10;68.65
56334;BME280;42240;53.626;55.886;2024-03-22T00:09:00;78443.66;;;-145.10;67.36
56334;BME280;42240;53.626;55.886;2024-03-22T00:10:33;78510.94;;;-145.10;66.64
56334;BME280;42240;53.626;55.886;2024-03-22T00:12:08;78495.09;;;-145.10;67.64
56334;BME280;42240;53.626;55.886;2024-03-22T00:13:40;78524.78;;;-145.10;68.35
56334;BME280;42240;53.626;55.886;2024-03-22T00:15:16;78540.59;;;-145.10;70.35
56334;BME280;42240;53.626;55.886;2024-03-22T00:16:49;78526.75;;;-145.10;69.78
56334;BME280;42240;53.626;55.886;2024-03-22T00:18:24;78538.63;;;-145.10;69.22
56334;BME280;42240;53.626;55.886;2024-03-22T00:19:56;78483.22;;;-145.10;68.98
56334;BME280;42240;53.626;55.886;2024-03-22T00:21:32;78552.47;;;-145.10;70.01
56334;BME280;42240;53.626;55.886;2024-03-22T00:23:04;78596.00;;;-145.10;71.00
56334;BME280;42240;53.626;55.886;2024-03-22T00:24:36;78617.75;;;-145.10;71.92
56334;BME280;42240;53.626;55.886;2024-03-22T00:26:09;78663.25;;;-145.10;73.54
56334;BME280;42240;53.626;55.886;2024-03-22T00:27:45;78726.56;;;-145.10;75.18
56334;BME280;42240;53.626;55.886;2024-03-22T00:29:18;78671.19;;;-145.10;74.82
56334;BME280;42240;53.626;55.886;2024-03-22T00:30:50;78696.91;;;-145.10;75.23
56334;BME280;42240;53.626;55.886;2024-03-22T00:32:26;78645.47;;;-145.10;75.91
56334;BME280;42240;53.626;55.886;2024-03-22T00:33:58;78694.91;;;-145.10;75.96
56334;BME280;42240;53.626;55.886;2024-03-22T00:35:31;78688.97;;;-145.10;76.68
56334;BME280;42240;53.626;55.886;2024-03-22T00:37:11;78716.69;;;-145.10;77.17
56334;BME280;42240;53.626;55.886;2024-03-22T00:38:44;78776.03;;;-145.10;78.05
56334;BME280;42240;53.626;55.886;2024-03-22T00:40:17;78752.28;;;-145.10;78.34
56334;BME280;42240;53.626;55.886;2024-03-22T00:41:50;78740.41;;;-145.10;77.78
56334;BME280;42240;53.626;55.886;2024-03-22T00:43:29;78718.66;;;-145.10;77.51
56334;BME280;42240;53.626;55.886;2024-03-22T00:45:05;78768.13;;;-145.10;76.82
56334;BME280;42240;53.626;55.886;2024-03-22T00:46:40;78770.09;;;-145.10;76.89
56334;BME280;42240;53.626;55.886;2024-03-22T00:48:13;78795.81;;;-145.10;78.03
56334;BME280;42240;53.626;55.886;2024-03-22T00:49:48;78799.78;;;-145.10;78.03
56334;BME280;42240;53.626;55.886;2024-03-22T00:51:21;78795.81;;;-145.10;78.25
56334;BME280;42240;53.626;55.886;2024-03-22T00:52:54;78892.75;;;-145.10;78.18
56334;BME280;42240;53.626;55.886;2024-03-22T00:54:29;78787.91;;;-145.10;77.32
56334;BME280;42240;53.626;55.886;2024-03-22T00:56:02;78764.16;;;-145.10;77.01
56334;BME280;42240;53.626;55.886;2024-03-22T00:57:34;78819.56;;;-145.10;77.03
56334;BME280;42240;53.626;55.886;2024-03-22T00:59:06;78793.84;;;-145.10;77.74
56334;BME280;42240;53.626;55.886;2024-03-22T01:00:42;78839.34;;;-145.10;78.62
56334;BME280;42240;53.626;55.886;2024-03-22T01:02:14;78871.00;;;-145.10;78.90
56334;BME280;42240;53.626;55.886;2024-03-22T01:03:46;78855.16;;;-145.10;79.53
56334;BME280;42240;53.626;55.886;2024-03-22T01:05:18;78886.81;;;-145.10;79.38
56334;BME280;42240;53.626;55.886;2024-03-22T01:06:50;78847.25;;;-145.10;79.21
56334;BME280;42240;53.626;55.886;2024-03-22T01:08:23;78851.22;;;-145.10;79.16
56334;BME280;42240;53.626;55.886;2024-03-22T01:09:56;78829.44;;;-145.10;79.13
56334;BME280;42240;53.626;55.886;2024-03-22T01:11:29;78825.50;;;-145.10;78.39
56334;BME280;42240;53.626;55.886;2024-03-22T01:13:01;78833.41;;;-145.10;77.21
56334;BME280;42240;53.626;55.886;2024-03-22T01:14:34;78855.16;;;-145.10;78.03
56334;BME280;42240;53.626;55.886;2024-03-22T01:16:09;78843.31;;;-145.10;77.94
56334;BME280;42240;53.626;55.886;2024-03-22T01:17:44;78872.97;;;-145.10;78.25
56334;BME280;42240;53.626;55.886;2024-03-22T01:19:17;78831.44;;;-145.10;77.77
56334;BME280;42240;53.626;55.886;2024-03-22T01:20:50;78890.78;;;-145.10;78.95
56334;BME280;42240;53.626;55.886;2024-03-22T01:22:22;78874.97;;;-145.10;79.28
56334;BME280;42240;53.626;55.886;2024-03-22T01:23:55;78876.94;;;-145.10;77.95
56334;BME280;42240;53.626;55.886;2024-03-22T01:25:27;78841.31;;;-145.10;78.48
56334;BME280;42240;53.626;55.886;2024-03-22T01:26:59;78938.28;;;-145.10;79.67
56334;BME280;42240;53.626;55.886;2024-03-22T01:28:32;78900.69;;;-145.10;79.80
56334;BME280;42240;53.626;55.886;2024-03-22T01:30:06;78878.91;;;-145.10;79.70
56334;BME280;42240;53.626;55.886;2024-03-22T01:31:41;78867.03;;;-145.10;79.47
56334;BME280;42240;53.626;55.886;2024-03-22T01:33:13;78859.13;;;-145.10;78.72
56334;BME280;42240;53.626;55.886;2024-03-22T01:34:45;78918.50;;;-145.10;79.60
56334;BME280;42240;53.626;55.886;2024-03-22T01:36:17;78938.28;;;-145.10;80.82
56334;BME280;42240;53.626;55.886;2024-03-22T01:37:50;78882.88;;;-145.10;80.48
56334;BME280;42240;53.626;55.886;2024-03-22T01:39:22;78867.03;;;-145.10;80.00
56334;BME280;42240;53.626;55.886;2024-03-22T01:40:55;78815.59;;;-145.10;78.62
56334;BME280;42240;53.626;55.886;2024-03-22T01:42:27;78847.25;;;-145.10;77.49
56334;BME280;42240;53.626;55.886;2024-03-22T01:43:59;78843.31;;;-145.10;77.36
56334;BME280;42240;53.626;55.886;2024-03-22T01:45:32;78882.88;;;-145.10;77.41
56334;BME280;42240;53.626;55.886;2024-03-22T01:47:05;78835.38;;;-145.10;76.98
56334;BME280;42240;53.626;55.886;2024-03-22T01:48:37;78837.38;;;-145.10;76.55
56334;BME280;42240;53.626;55.886;2024-03-22T01:50:10;78872.97;;;-145.10;76.58
56334;BME280;42240;53.626;55.886;2024-03-22T01:51:43;78890.78;;;-145.10;77.43
56334;BME280;42240;53.626;55.886;2024-03-22T01:53:16;78882.88;;;-145.10;77.78
56334;BME280;42240;53.626;55.886;2024-03-22T01:54:49;78869.03;;;-145.10;78.05
56334;BME280;42240;53.626;55.886;2024-03-22T01:56:25;78867.03;;;-145.10;78.17
56334;BME280;42240;53.626;55.886;2024-03-22T01:57:56;78809.66;;;-145.10;77.97
56334;BME280;42240;53.626;55.886;2024-03-22T01:59:30;78888.81;;;-145.10;77.80
56334;BME280;42240;53.626;55.886;2024-03-22T02:01:02;78867.03;;;-145.10;75.90
56334;BME280;42240;53.626;55.886;2024-03-22T02:02:35;78766.13;;;-145.10;74.92
56334;BME280;42240;53.626;55.886;2024-03-22T02:04:07;78756.25;;;-145.10;74.05
56334;BME280;42240;53.626;55.886;2024-03-22T02:05:41;78787.91;;;-145.10;74.42
56334;BME280;42240;53.626;55.886;2024-03-22T02:07:13;78785.94;;;-145.10;75.49
56334;BME280;42240;53.626;55.886;2024-03-22T02:08:49;78732.50;;;-145.10;75.26
56334;BME280;42240;53.626;55.886;2024-03-22T02:10:21;78762.19;;;-145.10;74.87
56334;BME280;42240;53.626;55.886;2024-03-22T02:11:53;78758.22;;;-145.10;74.77
56334;BME280;42240;53.626;55.886;2024-03-22T02:13:25;78766.13;;;-145.10;75.05
56334;BME280;42240;53.626;55.886;2024-03-22T02:14:58;78774.06;;;-145.10;75.61
56334;BME280;42240;53.626;55.886;2024-03-22T02:16:30;78770.09;;;-145.10;76.12
56334;BME280;42240;53.626;55.886;2024-03-22T02:18:02;78710.75;;;-145.10;74.73
56334;BME280;42240;53.626;55.886;2024-03-22T02:19:34;78710.75;;;-145.10;73.46
56334;BME280;42240;53.626;55.886;2024-03-22T02:21:06;78760.22;;;-145.10;73.99
56334;BME280;42240;53.626;55.886;2024-03-22T02:22:38;78746.34;;;-145.10;74.16
56334;BME280;42240;53.626;55.886;2024-03-22T02:24:10;78728.56;;;-145.10;73.57
56334;BME280;42240;53.626;55.886;2024-03-22T02:25:43;78716.69;;;-145.10;73.14
56334;BME280;42240;53.626;55.886;2024-03-22T02:27:15;78712.72;;;-145.10;72.02
56334;BME280;42240;53.626;55.886;2024-03-22T02:28:47;78720.63;;;-145.10;71.55
56334;BME280;42240;53.626;55.886;2024-03-22T02:30:19;78716.69;;;-145.10;71.35
56334;BME280;42240;53.626;55.886;2024-03-22T02:31:54;78649.41;;;-145.10;70.72
56334;BME280;42240;53.626;55.886;2024-03-22T02:33:25;78692.94;;;-145.10;69.29
56334;BME280;42240;53.626;55.886;2024-03-22T02:34:57;78694.91;;;-145.10;69.46
56334;BME280;42240;53.626;55.886;2024-03-22T02:36:31;78679.09;;;-145.10;69.43
56334;BME280;42240;53.626;55.886;2024-03-22T02:38:04;78694.91;;;-145.10;69.43
56334;BME280;42240;53.626;55.886;2024-03-22T02:39:38;78641.50;;;-145.10;68.73
56334;BME280;42240;53.626;55.886;2024-03-22T02:41:11;78669.19;;;-145.10;68.55
56334;BME280;42240;53.626;55.886;2024-03-22T02:42:43;78667.22;;;-145.10;68.25
56334;BME280;42240;53.626;55.886;2024-03-22T02:44:15;78669.19;;;-145.10;67.75
56334;BME280;42240;53.626;55.886;2024-03-22T02:45:47;78635.56;;;-145.10;66.32
56334;BME280;42240;53.626;55.886;2024-03-22T02:47:19;78546.53;;;-145.10;64.96
56334;BME280;42240;53.626;55.886;2024-03-22T02:48:55;78560.38;;;-145.10;64.19
56334;BME280;42240;53.626;55.886;2024-03-22T02:50:27;78566.31;;;-145.10;63.47
56334;BME280;42240;53.626;55.886;2024-03-22T02:51:59;78518.84;;;-145.10;62.43
56334;BME280;42240;53.626;55.886;2024-03-22T02:53:32;78481.25;;;-145.10;61.51
56334;BME280;42240;53.626;55.886;2024-03-22T02:55:04;78443.66;;;-145.10;61.07
56334;BME280;42240;53.626;55.886;2024-03-22T02:56:37;78475.31;;;-145.10;59.86
56334;BME280;42240;53.626;55.886;2024-03-22T02:58:09;78475.31;;;-145.10;59.83
56334;BME280;42240;53.626;55.886;2024-03-22T02:59:42;78412.00;;;-145.10;59.48
56334;BME280;42240;53.626;55.886;2024-03-22T03:01:14;78386.28;;;-145.10;59.06
56334;BME280;42240;53.626;55.886;2024-03-22T03:02:46;78356.63;;;-145.10;58.50
56334;BME280;42240;53.626;55.886;2024-03-22T03:04:18;78342.78;;;-145.10;57.44
56334;BME280;42240;53.626;55.886;2024-03-22T03:05:50;78384.31;;;-145.10;57.43
56334;BME280;42240;53.626;55.886;2024-03-22T03:07:25;78352.66;;;-145.10;57.41
56334;BME280;42240;53.626;55.886;2024-03-22T03:08:57;78388.28;;;-145.10;57.73
56334;BME280;42240;53.626;55.886;2024-03-22T03:10:29;78317.06;;;-145.10;58.32
56334;BME280;42240;53.626;55.886;2024-03-22T03:12:13;78265.63;;;-145.10;57.54
56334;BME280;42240;53.626;55.886;2024-03-22T03:13:45;78186.50;;;-145.10;56.17
56334;BME280;42240;53.626;55.886;2024-03-22T03:15:17;78164.72;;;-145.10;54.97
56334;BME280;42240;53.626;55.886;2024-03-22T03:16:53;78111.31;;;-145.10;54.51
56334;BME280;42240;53.626;55.886;2024-03-22T03:18:26;78065.81;;;-145.10;54.28
56334;BME280;42240;53.626;55.886;2024-03-22T03:19:58;78087.59;;;-145.10;53.35
56334;BME280;42240;53.626;55.886;2024-03-22T03:21:31;78032.19;;;-145.10;53.11
56334;BME280;42240;53.626;55.886;2024-03-22T03:23:03;77982.75;;;-145.10;51.99
56334;BME280;42240;53.626;55.886;2024-03-22T03:24:35;77980.78;;;-145.10;51.83
56334;BME280;42240;53.626;55.886;2024-03-22T03:26:08;78032.19;;;-145.10;51.49
56334;BME280;42240;53.626;55.886;2024-03-22T03:27:40;77959.00;;;-145.10;51.96
56334;BME280;42240;53.626;55.886;2024-03-22T03:29:12;77939.22;;;-145.10;51.34
56334;BME280;42240;53.626;55.886;2024-03-22T03:30:45;77887.78;;;-145.10;50.80
56334;BME280;42240;53.626;55.886;2024-03-22T03:32:16;77877.91;;;-145.10;49.90
56334;BME280;42240;53.626;55.886;2024-03-22T03:33:49;77868.00;;;-145.10;49.57
56334;BME280;42240;53.626;55.886;2024-03-22T03:35:21;77913.50;;;-145.10;49.09
56334;BME280;42240;53.626;55.886;2024-03-22T03:36:54;77941.22;;;-145.10;49.36
56334;BME280;42240;53.626;55.886;2024-03-22T03:38:26;77846.25;;;-145.10;49.18
56334;BME280;42240;53.626;55.886;2024-03-22T03:40:00;77780.97;;;-145.10;48.65
56334;BME280;42240;53.626;55.886;2024-03-22T03:41:35;77731.53;;;-145.10;47.48
56334;BME280;42240;53.626;55.886;2024-03-22T03:43:07;77751.31;;;-145.10;47.15
56334;BME280;42240;53.626;55.886;2024-03-22T03:44:42;77715.72;;;-145.10;46.53
56334;BME280;42240;53.626;55.886;2024-03-22T03:46:14;77715.72;;;-145.10;46.03
56334;BME280;42240;53.626;55.886;2024-03-22T03:47:47;77727.59;;;-145.10;45.66
56334;BME280;42240;53.626;55.886;2024-03-22T03:49:20;77745.38;;;-145.10;45.47
56334;BME280;42240;53.626;55.886;2024-03-22T03:50:56;77670.22;;;-145.10;45.41
56334;BME280;42240;53.626;55.886;2024-03-22T03:52:33;77680.09;;;-145.10;44.59
56334;BME280;42240;53.626;55.886;2024-03-22T03:54:06;77632.63;;;-145.10;44.17
56334;BME280;42240;53.626;55.886;2024-03-22T03:55:38;77604.94;;;-145.10;43.00
56334;BME280;42240;53.626;55.886;2024-03-22T03:57:11;77672.19;;;-145.10;43.03
56334;BME280;42240;53.626;55.886;2024-03-22T03:58:46;77695.94;;;-145.10;42.94
56334;BME280;42240;53.626;55.886;2024-03-22T04:00:19;77699.88;;;-145.10;43.03
56334;BME280;42240;53.626;55.886;2024-03-22T04:01:51;77743.41;;;-145.10;42.74
56334;BME280;42240;53.626;55.886;2024-03-22T04:03:24;77660.34;;;-145.10;42.55
56334;BME280;42240;53.626;55.886;2024-03-22T04:04:57;77608.91;;;-145.10;42.59
56334;BME280;42240;53.626;55.886;2024-03-22T04:06:34;77589.13;;;-145.10;42.48
56334;BME280;42240;53.626;55.886;2024-03-22T04:08:06;77541.66;;;-145.10;42.56
56334;BME280;42240;53.626;55.886;2024-03-22T04:09:38;77488.25;;;-145.10;41.83
56334;BME280;42240;53.626;55.886;2024-03-22T04:11:11;77332.00;;;-145.10;41.46
56334;BME280;42240;53.626;55.886;2024-03-22T04:12:44;77246.97;;;-145.10;40.53
56334;BME280;42240;53.626;55.886;2024-03-22T04:14:16;77280.59;;;-145.10;40.09
56334;BME280;42240;53.626;55.886;2024-03-22T04:15:52;77304.31;;;-145.10;39.30
56334;BME280;42240;53.626;55.886;2024-03-22T04:17:24;77246.97;;;-145.10;38.72
56334;BME280;42240;53.626;55.886;2024-03-22T04:18:57;77165.88;;;-145.10;38.73
56334;BME280;42240;53.626;55.886;2024-03-22T04:20:29;77132.25;;;-145.10;38.57
56334;BME280;42240;53.626;55.886;2024-03-22T04:22:02;77201.47;;;-145.10;38.16
56334;BME280;42240;53.626;55.886;2024-03-22T04:23:34;77080.84;;;-145.10;37.56
56334;BME280;42240;53.626;55.886;2024-03-22T04:25:09;77154.00;;;-145.10;37.64
56334;BME280;42240;53.626;55.886;2024-03-22T04:26:42;77096.66;;;-145.10;37.43
56334;BME280;42240;53.626;55.886;2024-03-22T04:28:17;77161.94;;;-145.10;37.25
56334;BME280;42240;53.626;55.886;2024-03-22T04:29:49;77225.22;;;-145.10;37.07
56334;BME280;42240;53.626;55.886;2024-03-22T04:31:21;77254.88;;;-145.10;37.18
56334;BME280;42240;53.626;55.886;2024-03-22T04:32:56;77237.06;;;-145.10;37.15
56334;BME280;42240;53.626;55.886;2024-03-22T04:34:30;77201.47;;;-145.10;37.19
56334;BME280;42240;53.626;55.886;2024-03-22T04:36:02;77177.75;;;-145.10;36.84
56334;BME280;42240;53.626;55.886;2024-03-22T04:37:34;77169.84;;;-145.10;37.11
56334;BME280;42240;53.626;55.886;2024-03-22T04:39:12;77152.03;;;-145.10;36.82
56334;BME280;42240;53.626;55.886;2024-03-22T04:40:45;77144.13;;;-145.10;36.73
56334;BME280;42240;53.626;55.886;2024-03-22T04:42:17;77100.63;;;-145.10;36.49
56334;BME280;42240;53.626;55.886;2024-03-22T04:43:50;77298.38;;;-145.10;36.13
56334;BME280;42240;53.626;55.886;2024-03-22T04:45:21;77177.75;;;-145.10;36.69
56334;BME280;42240;53.626;55.886;2024-03-22T04:46:53;77154.00;;;-145.10;36.29
56334;BME280;42240;53.626;55.886;2024-03-22T04:48:25;77106.56;;;-145.10;36.55
56334;BME280;42240;53.626;55.886;2024-03-22T04:49:57;77156.00;;;-145.10;36.61
56334;BME280;42240;53.626;55.886;2024-03-22T04:51:29;77156.00;;;-145.10;36.25
56334;BME280;42240;53.626;55.886;2024-03-22T04:53:02;77104.56;;;-145.10;35.95
56334;BME280;42240;53.626;55.886;2024-03-22T04:54:34;77104.56;;;-145.10;36.01
56334;BME280;42240;53.626;55.886;2024-03-22T04:56:06;77096.66;;;-145.10;36.00
56334;BME280;42240;53.626;55.886;2024-03-22T04:57:38;77011.63;;;-145.10;35.64
56334;BME280;42240;53.626;55.886;2024-03-22T04:59:10;76991.84;;;-145.10;35.08
56334;BME280;42240;53.626;55.886;2024-03-22T05:00:43;76892.97;;;-145.10;35.21
56334;BME280;42240;53.626;55.886;2024-03-22T05:02:16;76881.09;;;-145.10;34.93
56334;BME280;42240;53.626;55.886;2024-03-22T05:03:49;76946.38;;;-145.10;35.22
56334;BME280;42240;53.626;55.886;2024-03-22T05:05:21;76875.16;;;-145.10;34.77
56334;BME280;42240;53.626;55.886;2024-03-22T05:06:53;76790.13;;;-145.10;34.27
56334;BME280;42240;53.626;55.886;2024-03-22T05:08:25;76667.53;;;-145.10;34.08
56334;BME280;42240;53.626;55.886;2024-03-22T05:09:57;76655.66;;;-145.10;33.45
56334;BME280;42240;53.626;55.886;2024-03-22T05:11:29;76631.94;;;-145.10;33.30
56334;BME280;42240;53.626;55.886;2024-03-22T05:13:02;76707.09;;;-145.10;33.10
56334;BME280;42240;53.626;55.886;2024-03-22T05:14:34;76750.59;;;-145.10;33.53
56334;BME280;42240;53.626;55.886;2024-03-22T05:16:06;76841.56;;;-145.10;33.82
56334;BME280;42240;53.626;55.886;2024-03-22T05:17:38;76734.78;;;-145.10;33.83
56334;BME280;42240;53.626;55.886;2024-03-22T05:19:12;76756.53;;;-145.10;33.85
56334;BME280;42240;53.626;55.886;2024-03-22T05:20:44;76556.81;;;-145.10;33.39
56334;BME280;42240;53.626;55.886;2024-03-22T05:22:16;76610.19;;;-145.10;32.08
56334;BME280;42240;53.626;55.886;2024-03-22T05:23:48;76537.03;;;-145.10;32.24
56334;BME280;42240;53.626;55.886;2024-03-22T05:25:20;76505.38;;;-145.10;32.09
56334;BME280;42240;53.626;55.886;2024-03-22T05:26:52;76576.56;;;-145.10;31.98
56334;BME280;42240;53.626;55.886;2024-03-22T05:28:25;76535.06;;;-145.10;31.78
56334;BME280;42240;53.626;55.886;2024-03-22T05:29:56;76584.47;;;-145.10;32.29
56334;BME280;42240;53.626;55.886;2024-03-22T05:31:29;76513.28;;;-145.10;32.01
56334;BME280;42240;53.626;55.886;2024-03-22T05:33:01;76592.41;;;-145.10;31.58
56334;BME280;42240;53.626;55.886;2024-03-22T05:34:33;76610.19;;;-145.10;31.51
56334;BME280;42240;53.626;55.886;2024-03-22T05:36:06;76497.47;;;-145.10;31.94
56334;BME280;42240;53.626;55.886;2024-03-22T05:37:38;76398.63;;;-145.10;31.49
56334;BME280;42240;53.626;55.886;2024-03-22T05:39:11;76513.28;;;-145.10;31.27
56334;BME280;42240;53.626;55.886;2024-03-22T05:40:43;76386.75;;;-145.10;31.58
56334;BME280;42240;53.626;55.886;2024-03-22T05:42:17;76428.28;;;-145.10;31.44
56334;BME280;42240;53.626;55.886;2024-03-22T05:43:50;76390.69;;;-145.10;31.31
56334;BME280;42240;53.626;55.886;2024-03-22T05:45:21;76329.41;;;-145.10;31.37
56334;BME280;42240;53.626;55.886;2024-03-22T05:46:53;76382.78;;;-145.10;30.92
56334;BME280;42240;53.626;55.886;2024-03-22T05:48:25;76343.25;;;-145.10;31.11
56334;BME280;42240;53.626;55.886;2024-03-22T05:49:58;76315.56;;;-145.10;31.14
56334;BME280;42240;53.626;55.886;2024-03-22T05:51:35;76386.75;;;-145.10;31.13
56334;BME280;42240;53.626;55.886;2024-03-22T05:53:07;76487.59;;;-145.10;31.35
56334;BME280;42240;53.626;55.886;2024-03-22T05:54:39;76519.22;;;-145.10;31.67
56334;BME280;42240;53.626;55.886;2024-03-22T05:56:11;76542.97;;;-145.10;31.98
56334;BME280;42240;53.626;55.886;2024-03-22T05:57:43;76612.16;;;-145.10;32.15
56334;BME280;42240;53.626;55.886;2024-03-22T05:59:15;76695.22;;;-145.10;32.87
56334;BME280;42240;53.626;55.886;2024-03-22T06:00:48;76738.72;;;-145.10;33.23
56334;BME280;42240;53.626;55.886;2024-03-22T06:02:21;76540.97;;;-145.10;32.54
56334;BME280;42240;53.626;55.886;2024-03-22T06:03:53;76521.22;;;-145.10;31.97
56334;BME280;42240;53.626;55.886;2024-03-22T06:05:25;76471.78;;;-145.10;31.94
56334;BME280;42240;53.626;55.886;2024-03-22T06:06:57;76572.63;;;-145.10;31.36
56334;BME280;42240;53.626;55.886;2024-03-22T06:08:31;76521.22;;;-145.10;31.42
56334;BME280;42240;53.626;55.886;2024-03-22T06:10:10;76540.97;;;-145.10;31.81
56334;BME280;42240;53.626;55.886;2024-03-22T06:11:42;76481.66;;;-145.10;31.66
56334;BME280;42240;53.626;55.886;2024-03-22T06:13:15;76386.75;;;-145.10;31.69
56334;BME280;42240;53.626;55.886;2024-03-22T06:14:47;76483.63;;;-145.10;31.60
56334;BME280;42240;53.626;55.886;2024-03-22T06:16:20;76560.75;;;-145.10;31.83
56334;BME280;42240;53.626;55.886;2024-03-22T06:17:55;76426.28;;;-145.10;32.12
56334;BME280;42240;53.626;55.886;2024-03-22T06:19:27;76552.84;;;-145.10;31.62
56334;BME280;42240;53.626;55.886;2024-03-22T06:20:59;76414.44;;;-145.10;31.51
56334;BME280;42240;53.626;55.886;2024-03-22T06:22:31;76448.03;;;-145.10;31.06
56334;BME280;42240;53.626;55.886;2024-03-22T06:24:03;76552.84;;;-145.10;31.52
56334;BME280;42240;53.626;55.886;2024-03-22T06:25:36;76618.09;;;-145.10;32.09
56334;BME280;42240;53.626;55.886;2024-03-22T06:27:08;76503.41;;;-145.10;31.92
56334;BME280;42240;53.626;55.886;2024-03-22T06:28:41;76489.56;;;-145.10;31.41
56334;BME280;42240;53.626;55.886;2024-03-22T06:30:13;76463.88;;;-145.10;31.36
56334;BME280;42240;53.626;55.886;2024-03-22T06:31:45;76527.13;;;-145.10;31.48
56334;BME280;42240;53.626;55.886;2024-03-22T06:33:16;76469.78;;;-145.10;31.44
56334;BME280;42240;53.626;55.886;2024-03-22T06:34:48;76424.31;;;-145.10;31.53
56334;BME280;42240;53.626;55.886;2024-03-22T06:36:20;76556.81;;;-145.10;31.68
56334;BME280;42240;53.626;55.886;2024-03-22T06:37:54;76540.97;;;-145.10;32.18
56334;BME280;42240;53.626;55.886;2024-03-22T06:39:26;76497.47;;;-145.10;32.58
56334;BME280;42240;53.626;55.886;2024-03-22T06:40:58;76438.16;;;-145.10;32.04
56334;BME280;42240;53.626;55.886;2024-03-22T06:42:31;76398.63;;;-145.10;32.50
56334;BME280;42240;53.626;55.886;2024-03-22T06:44:03;76321.50;;;-145.10;32.43
56334;BME280;42240;53.626;55.886;2024-03-22T06:45:35;76402.56;;;-145.10;31.09
56334;BME280;42240;53.626;55.886;2024-03-22T06:47:07;76570.63;;;-145.10;32.09
56334;BME280;42240;53.626;55.886;2024-03-22T06:48:39;76691.25;;;-145.10;32.85
56334;BME280;42240;53.626;55.886;2024-03-22T06:50:11;76525.16;;;-145.10;32.98
56334;BME280;42240;53.626;55.886;2024-03-22T06:51:43;76596.34;;;-145.10;32.54
56334;BME280;42240;53.626;55.886;2024-03-22T06:53:15;76566.69;;;-145.10;32.94
56334;BME280;42240;53.626;55.886;2024-03-22T06:54:47;76683.34;;;-145.10;33.40
56334;BME280;42240;53.626;55.886;2024-03-22T06:56:19;76669.50;;;-145.10;33.36
56334;BME280;42240;53.626;55.886;2024-03-22T06:57:51;76786.19;;;-145.10;33.51
56334;BME280;42240;53.626;55.886;2024-03-22T06:59:24;76724.88;;;-145.10;33.76
56334;BME280;42240;53.626;55.886;2024-03-22T07:00:56;76726.84;;;-145.10;33.61
56334;BME280;42240;53.626;55.886;2024-03-22T07:02:28;76798.03;;;-145.10;33.85
56334;BME280;42240;53.626;55.886;2024-03-22T07:04:01;76809.91;;;-145.10;34.17
56334;BME280;42240;53.626;55.886;2024-03-22T07:05:34;76847.50;;;-145.10;34.41
56334;BME280;42240;53.626;55.886;2024-03-22T07:07:06;76892.97;;;-145.10;34.42
56334;BME280;42240;53.626;55.886;2024-03-22T07:08:38;76853.41;;;-145.10;34.56
56334;BME280;42240;53.626;55.886;2024-03-22T07:10:09;76831.66;;;-145.10;34.46
56334;BME280;42240;53.626;55.886;2024-03-22T07:11:42;76805.97;;;-145.10;34.12
56334;BME280;42240;53.626;55.886;2024-03-22T07:13:13;76758.50;;;-145.10;34.29
56334;BME280;42240;53.626;55.886;2024-03-22T07:14:46;76667.53;;;-145.10;34.12
56334;BME280;42240;53.626;55.886;2024-03-22T07:16:18;76699.19;;;-145.10;34.32
56334;BME280;42240;53.626;55.886;2024-03-22T07:17:50;76637.88;;;-145.10;34.23
56334;BME280;42240;53.626;55.886;2024-03-22T07:19:23;76643.81;;;-145.10;33.76
56334;BME280;42240;53.626;55.886;2024-03-22T07:20:55;76653.69;;;-145.10;34.40
56334;BME280;42240;53.626;55.886;2024-03-22T07:22:27;76631.94;;;-145.10;34.08
56334;BME280;42240;53.626;55.886;2024-03-22T07:23:59;76716.97;;;-145.10;33.77
56334;BME280;42240;53.626;55.886;2024-03-22T07:25:31;76732.78;;;-145.10;33.85
56334;BME280;42240;53.626;55.886;2024-03-22T07:27:04;76738.72;;;-145.10;34.18
56334;BME280;42240;53.626;55.886;2024-03-22T07:28:36;76770.38;;;-145.10;34.09
56334;BME280;42240;53.626;55.886;2024-03-22T07:30:08;76776.28;;;-145.10;34.53
56334;BME280;42240;53.626;55.886;2024-03-22T07:31:40;76786.19;;;-145.10;34.57
56334;BME280;42240;53.626;55.886;2024-03-22T07:33:13;76849.47;;;-145.10;34.83
56334;BME280;42240;53.626;55.886;2024-03-22T07:34:47;76831.66;;;-145.10;34.41
56334;BME280;42240;53.626;55.886;2024-03-22T07:36:19;76774.31;;;-145.10;34.62
56334;BME280;42240;53.626;55.886;2024-03-22T07:37:51;76794.09;;;-145.10;34.64
56334;BME280;42240;53.626;55.886;2024-03-22T07:39:23;76720.94;;;-145.10;35.15
56334;BME280;42240;53.626;55.886;2024-03-22T07:40:54;76722.91;;;-145.10;34.53
56334;BME280;42240;53.626;55.886;2024-03-22T07:42:26;76790.13;;;-145.10;35.11
56334;BME280;42240;53.626;55.886;2024-03-22T07:43:59;76732.78;;;-145.10;34.84
56334;BME280;42240;53.626;55.886;2024-03-22T07:45:34;76649.75;;;-145.10;34.54
56334;BME280;42240;53.626;55.886;2024-03-22T07:47:06;76675.44;;;-145.10;34.44
56334;BME280;42240;53.626;55.886;2024-03-22T07:48:38;76750.59;;;-145.10;34.32
56334;BME280;42240;53.626;55.886;2024-03-22T07:50:10;76813.88;;;-145.10;34.50
56334;BME280;42240;53.626;55.886;2024-03-22T07:51:42;76786.19;;;-145.10;35.16
56334;BME280;42240;53.626;55.886;2024-03-22T07:53:13;76782.22;;;-145.10;34.46